sensor_id;sensor_type;location;lat;lon;timestamp;pressure;altitude;pressure_sealevel;temperature;humidity
67842;BME280;54642;59.126;37.876;2024-03-08T00:00:28;99873.72;;;-1.23;71.16
67842;BME280;54642;59.126;37.876;2024-03-08T00:02:53;99903.44;;;-0.99;71.27
67842;BME280;54642;59.126;37.876;2024-03-08T00:05:20;99905.13;;;-1.00;71.19
67842;BME280;54642;59.126;37.876;2024-03-08T00:07:45;99901.09;;;-0.94;71.22
67842;BME280;54642;59.126;37.876;2024-03-08T00:10:12;99901.75;;;-0.99;71.32
67842;BME280;54642;59.126;37.876;2024-03-08T00:12:39;99900.22;;;-0.95;71.33
67842;BME280;54642;59.126;37.876;2024-03-08T00:15:08;99890.66;;;-1.01;71.63
67842;BME280;54642;59.126;37.876;2024-03-08T00:17:35;99884.94;;;-0.95;71.74
67842;BME280;54642;59.126;37.876;2024-03-08T00:20:01;99882.38;;;-0.97;71.55
67842;BME280;54642;59.126;37.876;2024-03-08T00:22:29;99876.66;;;-0.91;71.61
67842;BME280;54642;59.126;37.876;2024-03-08T00:24:56;99853.28;;;-1.03;71.66
67842;BME280;54642;59.126;37.876;2024-03-08T00:27:21;99864.59;;;-0.95;71.71
67842;BME280;54642;59.126;37.876;2024-03-08T00:29:47;99859.63;;;-0.92;72.05
67842;BME280;54642;59.126;37.876;2024-03-08T00:32:13;99861.59;;;-0.85;72.04
67842;BME280;54642;59.126;37.876;2024-03-08T00:34:39;99833.28;;;-0.94;72.01
67842;BME280;54642;59.126;37.876;2024-03-08T00:37:05;99866.22;;;-0.74;72.15
67842;BME280;54642;59.126;37.876;2024-03-08T00:39:30;99861.84;;;-0.79;72.01
67842;BME280;54642;59.126;37.876;2024-03-08T00:41:56;99865.47;;;-0.72;72.05
67842;BME280;54642;59.126;37.876;2024-03-08T00:44:22;99862.72;;;-0.78;72.19
67842;BME280;54642;59.126;37.876;2024-03-08T00:46:48;99842.69;;;-0.91;72.22
67842;BME280;54642;59.126;37.876;2024-03-08T00:49:15;99873.81;;;-0.76;72.31
67842;BME280;54642;59.126;37.876;2024-03-08T00:51:40;99868.91;;;-0.71;72.53
67842;BME280;54642;59.126;37.876;2024-03-08T00:54:06;99843.78;;;-0.85;72.30
67842;BME280;54642;59.126;37.876;2024-03-08T00:56:32;99856.78;;;-0.77;72.54
67842;BME280;54642;59.126;37.876;2024-03-08T00:58:59;99830.28;;;-0.84;72.71
67842;BME280;54642;59.126;37.876;2024-03-08T01:01:25;99836.34;;;-0.80;72.88
67842;BME280;54642;59.126;37.876;2024-03-08T01:03:51;99838.94;;;-0.79;72.69
67842;BME280;54642;59.126;37.876;2024-03-08T01:06:17;99859.97;;;-0.60;72.62
67842;BME280;54642;59.126;37.876;2024-03-08T01:08:44;99871.06;;;-0.58;72.79
67842;BME280;54642;59.126;37.876;2024-03-08T01:11:12;99860.19;;;-0.54;72.99
67842;BME280;54642;59.126;37.876;2024-03-08T01:13:38;99825.66;;;-0.70;72.90
67842;BME280;54642;59.126;37.876;2024-03-08T01:16:04;99835.22;;;-0.64;72.87
67842;BME280;54642;59.126;37.876;2024-03-08T01:18:30;99841.50;;;-0.54;72.87
67842;BME280;54642;59.126;37.876;2024-03-08T01:20:56;99804.34;;;-0.73;72.82
67842;BME280;54642;59.126;37.876;2024-03-08T01:23:22;99858.69;;;-0.49;73.30
67842;BME280;54642;59.126;37.876;2024-03-08T01:25:48;99829.59;;;-0.55;73.23
67842;BME280;54642;59.126;37.876;2024-03-08T01:28:17;99828.84;;;-0.53;73.22
67842;BME280;54642;59.126;37.876;2024-03-08T01:30:43;99848.69;;;-0.44;73.32
67842;BME280;54642;59.126;37.876;2024-03-08T01:33:10;99846.06;;;-0.46;73.41
67842;BME280;54642;59.126;37.876;2024-03-08T01:35:36;99849.72;;;-0.39;73.26
67842;BME280;54642;59.126;37.876;2024-03-08T01:38:01;99842.75;;;-0.43;73.28
67842;BME280;54642;59.126;37.876;2024-03-08T01:40:30;99816.91;;;-0.54;73.45
67842;BME280;54642;59.126;37.876;2024-03-08T01:42:56;99837.66;;;-0.43;73.54
67842;BME280;54642;59.126;37.876;2024-03-08T01:45:22;99843.13;;;-0.32;73.34
67842;BME280;54642;59.126;37.876;2024-03-08T01:47:47;99812.06;;;-0.48;73.27
67842;BME280;54642;59.126;37.876;2024-03-08T01:50:14;99806.97;;;-0.48;73.59
67842;BME280;54642;59.126;37.876;2024-03-08T01:52:41;99837.34;;;-0.28;73.61
67842;BME280;54642;59.126;37.876;2024-03-08T01:55:08;99824.50;;;-0.31;73.56
67842;BME280;54642;59.126;37.876;2024-03-08T01:57:34;99828.81;;;-0.29;73.54
67842;BME280;54642;59.126;37.876;2024-03-08T02:00:03;99825.59;;;-0.25;73.69
67842;BME280;54642;59.126;37.876;2024-03-08T02:02:32;99827.97;;;-0.29;73.50
67842;BME280;54642;59.126;37.876;2024-03-08T02:05:00;99841.94;;;-0.18;73.34
67842;BME280;54642;59.126;37.876;2024-03-08T02:07:26;99807.59;;;-0.29;73.51
67842;BME280;54642;59.126;37.876;2024-03-08T02:09:52;99831.72;;;-0.20;73.36
67842;BME280;54642;59.126;37.876;2024-03-08T02:12:18;99835.31;;;-0.13;73.52
67842;BME280;54642;59.126;37.876;2024-03-08T02:14:46;99817.66;;;-0.34;73.22
67842;BME280;54642;59.126;37.876;2024-03-08T02:17:12;99836.81;;;-0.20;73.45
67842;BME280;54642;59.126;37.876;2024-03-08T02:19:38;99844.47;;;-0.18;73.37
67842;BME280;54642;59.126;37.876;2024-03-08T02:22:05;99844.44;;;-0.20;73.66
67842;BME280;54642;59.126;37.876;2024-03-08T02:24:32;99810.09;;;-0.31;73.46
67842;BME280;54642;59.126;37.876;2024-03-08T02:26:59;99814.31;;;-0.31;73.48
67842;BME280;54642;59.126;37.876;2024-03-08T02:29:24;99821.63;;;-0.16;73.24
67842;BME280;54642;59.126;37.876;2024-03-08T02:31:51;99832.09;;;-0.09;73.38
67842;BME280;54642;59.126;37.876;2024-03-08T02:34:16;99805.28;;;-0.23;73.49
67842;BME280;54642;59.126;37.876;2024-03-08T02:36:42;99840.66;;;-0.07;73.34
67842;BME280;54642;59.126;37.876;2024-03-08T02:39:08;99815.66;;;-0.17;73.44
67842;BME280;54642;59.126;37.876;2024-03-08T02:41:36;99818.22;;;-0.17;73.66
67842;BME280;54642;59.126;37.876;2024-03-08T02:44:02;99808.69;;;-0.23;73.71
67842;BME280;54642;59.126;37.876;2024-03-08T02:46:29;99836.34;;;-0.08;73.76
67842;BME280;54642;59.126;37.876;2024-03-08T02:48:56;99836.34;;;-0.08;73.80
67842;BME280;54642;59.126;37.876;2024-03-08T02:51:21;99833.97;;;-0.03;73.89
67842;BME280;54642;59.126;37.876;2024-03-08T02:53:47;99831.31;;;-0.06;73.86
67842;BME280;54642;59.126;37.876;2024-03-08T02:56:15;99812.25;;;-0.17;73.89
67842;BME280;54642;59.126;37.876;2024-03-08T02:58:42;99816.56;;;-0.15;74.14
67842;BME280;54642;59.126;37.876;2024-03-08T03:01:08;99809.66;;;-0.19;73.94
67842;BME280;54642;59.126;37.876;2024-03-08T03:03:36;99826.22;;;-0.06;73.79
67842;BME280;54642;59.126;37.876;2024-03-08T03:06:02;99823.84;;;-0.02;73.75
67842;BME280;54642;59.126;37.876;2024-03-08T03:08:28;99809.41;;;-0.01;73.49
67842;BME280;54642;59.126;37.876;2024-03-08T03:10:54;99830.94;;;0.09;73.77
67842;BME280;54642;59.126;37.876;2024-03-08T03:13:22;99817.22;;;0.04;73.62
67842;BME280;54642;59.126;37.876;2024-03-08T03:15:49;99789.69;;;-0.07;73.70
67842;BME280;54642;59.126;37.876;2024-03-08T03:18:14;99812.25;;;0.08;74.05
67842;BME280;54642;59.126;37.876;2024-03-08T03:20:41;99793.91;;;-0.07;73.88
67842;BME280;54642;59.126;37.876;2024-03-08T03:23:09;99798.44;;;0.02;73.85
67842;BME280;54642;59.126;37.876;2024-03-08T03:25:35;99785.63;;;-0.02;73.96
67842;BME280;54642;59.126;37.876;2024-03-08T03:28:02;99783.16;;;0.02;73.65
67842;BME280;54642;59.126;37.876;2024-03-08T03:30:28;99810.91;;;0.18;73.82
67842;BME280;54642;59.126;37.876;2024-03-08T03:32:59;99792.03;;;0.13;73.85
67842;BME280;54642;59.126;37.876;2024-03-08T03:35:35;99792.84;;;0.12;73.73
67842;BME280;54642;59.126;37.876;2024-03-08T03:38:01;99793.75;;;0.14;73.75
67842;BME280;54642;59.126;37.876;2024-03-08T03:40:34;99810.28;;;0.25;73.61
67842;BME280;54642;59.126;37.876;2024-03-08T03:43:00;99805.13;;;0.24;73.63
67842;BME280;54642;59.126;37.876;2024-03-08T03:45:27;99811.19;;;0.27;73.51
67842;BME280;54642;59.126;37.876;2024-03-08T03:47:53;99812.91;;;0.28;73.57
67842;BME280;54642;59.126;37.876;2024-03-08T03:50:18;99804.56;;;0.32;73.64
67842;BME280;54642;59.126;37.876;2024-03-08T03:52:48;99755.28;;;0.06;73.67
67842;BME280;54642;59.126;37.876;2024-03-08T03:55:14;99790.66;;;0.23;73.49
67842;BME280;54642;59.126;37.876;2024-03-08T03:57:41;99778.53;;;0.15;73.70
67842;BME280;54642;59.126;37.876;2024-03-08T04:00:06;99799.53;;;0.35;73.68
67842;BME280;54642;59.126;37.876;2024-03-08T04:02:38;99788.94;;;0.23;73.64
67842;BME280;54642;59.126;37.876;2024-03-08T04:05:05;99799.50;;;0.34;73.56
67842;BME280;54642;59.126;37.876;2024-03-08T04:07:32;99808.03;;;0.34;73.51
67842;BME280;54642;59.126;37.876;2024-03-08T04:09:57;99803.88;;;0.38;73.58
67842;BME280;54642;59.126;37.876;2024-03-08T04:12:23;99800.28;;;0.31;73.54
67842;BME280;54642;59.126;37.876;2024-03-08T04:14:49;99812.34;;;0.37;73.47
67842;BME280;54642;59.126;37.876;2024-03-08T04:17:15;99807.91;;;0.31;73.76
67842;BME280;54642;59.126;37.876;2024-03-08T04:19:42;99782.25;;;0.25;73.72
67842;BME280;54642;59.126;37.876;2024-03-08T04:22:08;99790.13;;;0.33;73.73
67842;BME280;54642;59.126;37.876;2024-03-08T04:24:33;99802.34;;;0.43;73.88
67842;BME280;54642;59.126;37.876;2024-03-08T04:26:59;99766.06;;;0.25;73.58
67842;BME280;54642;59.126;37.876;2024-03-08T04:29:25;99795.63;;;0.45;73.74
67842;BME280;54642;59.126;37.876;2024-03-08T04:31:52;99765.09;;;0.21;73.59
67842;BME280;54642;59.126;37.876;2024-03-08T04:34:21;99799.81;;;0.43;73.72
67842;BME280;54642;59.126;37.876;2024-03-08T04:36:48;99800.03;;;0.51;73.44
67842;BME280;54642;59.126;37.876;2024-03-08T04:39:14;99761.22;;;0.32;73.58
67842;BME280;54642;59.126;37.876;2024-03-08T04:41:44;99765.72;;;0.41;73.41
67842;BME280;54642;59.126;37.876;2024-03-08T04:44:11;99766.78;;;0.48;73.71
67842;BME280;54642;59.126;37.876;2024-03-08T04:46:38;99786.66;;;0.58;73.67
67842;BME280;54642;59.126;37.876;2024-03-08T04:49:04;99792.03;;;0.67;73.54
67842;BME280;54642;59.126;37.876;2024-03-08T04:51:29;99784.25;;;0.63;73.55
67842;BME280;54642;59.126;37.876;2024-03-08T04:53:55;99790.53;;;0.74;73.31
67842;BME280;54642;59.126;37.876;2024-03-08T04:56:22;99783.59;;;0.68;73.48
67842;BME280;54642;59.126;37.876;2024-03-08T04:58:48;99798.25;;;0.75;73.36
67842;BME280;54642;59.126;37.876;2024-03-08T05:01:14;99773.22;;;0.64;73.30
67842;BME280;54642;59.126;37.876;2024-03-08T05:03:40;99784.66;;;0.76;73.39
67842;BME280;54642;59.126;37.876;2024-03-08T05:06:06;99767.28;;;0.63;73.47
67842;BME280;54642;59.126;37.876;2024-03-08T05:08:32;99790.59;;;0.75;73.38
67842;BME280;54642;59.126;37.876;2024-03-08T05:10:58;99777.47;;;0.63;73.42
67842;BME280;54642;59.126;37.876;2024-03-08T05:13:26;99788.75;;;0.71;73.63
67842;BME280;54642;59.126;37.876;2024-03-08T05:15:52;99786.94;;;0.67;73.60
67842;BME280;54642;59.126;37.876;2024-03-08T05:18:18;99793.03;;;0.72;73.58
67842;BME280;54642;59.126;37.876;2024-03-08T05:20:44;99761.97;;;0.57;73.54
67842;BME280;54642;59.126;37.876;2024-03-08T05:23:09;99789.59;;;0.70;73.74
67842;BME280;54642;59.126;37.876;2024-03-08T05:25:35;99787.22;;;0.76;73.69
67842;BME280;54642;59.126;37.876;2024-03-08T05:28:01;99771.59;;;0.66;73.60
67842;BME280;54642;59.126;37.876;2024-03-08T05:30:27;99777.00;;;0.76;73.86
67842;BME280;54642;59.126;37.876;2024-03-08T05:32:54;99780.41;;;0.75;73.96
67842;BME280;54642;59.126;37.876;2024-03-08T05:35:20;99787.31;;;0.80;73.81
67842;BME280;54642;59.126;37.876;2024-03-08T05:37:46;99756.44;;;0.70;73.50
67842;BME280;54642;59.126;37.876;2024-03-08T05:40:11;99782.22;;;0.80;73.74
67842;BME280;54642;59.126;37.876;2024-03-08T05:42:37;99753.78;;;0.67;73.65
67842;BME280;54642;59.126;37.876;2024-03-08T05:45:03;99777.22;;;0.83;73.70
67842;BME280;54642;59.126;37.876;2024-03-08T05:47:29;99768.56;;;0.78;74.08
67842;BME280;54642;59.126;37.876;2024-03-08T05:49:55;99780.75;;;0.88;73.66
67842;BME280;54642;59.126;37.876;2024-03-08T05:52:21;99749.78;;;0.75;73.45
67842;BME280;54642;59.126;37.876;2024-03-08T05:54:47;99743.94;;;0.80;73.63
67842;BME280;54642;59.126;37.876;2024-03-08T05:57:12;99762.47;;;1.03;73.42
67842;BME280;54642;59.126;37.876;2024-03-08T05:59:39;99754.16;;;1.10;73.14
67842;BME280;54642;59.126;37.876;2024-03-08T06:02:05;99760.63;;;1.27;72.75
67842;BME280;54642;59.126;37.876;2024-03-08T06:04:31;99755.66;;;1.33;72.76
67842;BME280;54642;59.126;37.876;2024-03-08T06:06:57;99750.41;;;1.27;72.50
67842;BME280;54642;59.126;37.876;2024-03-08T06:09:25;99751.34;;;1.31;72.37
67842;BME280;54642;59.126;37.876;2024-03-08T06:11:54;99761.91;;;1.43;72.40
67842;BME280;54642;59.126;37.876;2024-03-08T06:14:20;99746.50;;;1.40;72.37
67842;BME280;54642;59.126;37.876;2024-03-08T06:16:46;99760.31;;;1.48;72.37
67842;BME280;54642;59.126;37.876;2024-03-08T06:19:13;99748.19;;;1.40;72.60
67842;BME280;54642;59.126;37.876;2024-03-08T06:21:39;99756.00;;;1.46;72.42
67842;BME280;54642;59.126;37.876;2024-03-08T06:24:05;99741.28;;;1.37;72.34
67842;BME280;54642;59.126;37.876;2024-03-08T06:26:31;99762.88;;;1.48;72.43
67842;BME280;54642;59.126;37.876;2024-03-08T06:28:57;99762.72;;;1.42;72.61
67842;BME280;54642;59.126;37.876;2024-03-08T06:31:23;99754.06;;;1.37;72.79
67842;BME280;54642;59.126;37.876;2024-03-08T06:33:49;99720.53;;;1.25;72.86
67842;BME280;54642;59.126;37.876;2024-03-08T06:36:18;99750.28;;;1.55;72.67
67842;BME280;54642;59.126;37.876;2024-03-08T06:38:48;99724.66;;;1.51;72.60
67842;BME280;54642;59.126;37.876;2024-03-08T06:41:14;99743.72;;;1.64;72.63
67842;BME280;54642;59.126;37.876;2024-03-08T06:43:46;99700.72;;;1.48;72.43
67842;BME280;54642;59.126;37.876;2024-03-08T06:46:17;99724.13;;;1.63;72.28
67842;BME280;54642;59.126;37.876;2024-03-08T06:48:43;99743.31;;;1.82;72.40
67842;BME280;54642;59.126;37.876;2024-03-08T06:51:09;99722.50;;;2.02;72.46
67842;BME280;54642;59.126;37.876;2024-03-08T06:53:36;99750.44;;;2.31;71.79
67842;BME280;54642;59.126;37.876;2024-03-08T06:56:03;99735.06;;;2.27;71.43
67842;BME280;54642;59.126;37.876;2024-03-08T06:58:29;99737.66;;;2.29;71.54
67842;BME280;54642;59.126;37.876;2024-03-08T07:00:54;99745.25;;;2.26;71.53
67842;BME280;54642;59.126;37.876;2024-03-08T07:03:24;99728.88;;;2.19;71.54
67842;BME280;54642;59.126;37.876;2024-03-08T07:05:50;99734.97;;;2.24;71.29
67842;BME280;54642;59.126;37.876;2024-03-08T07:08:15;99743.53;;;2.26;71.35
67842;BME280;54642;59.126;37.876;2024-03-08T07:10:42;99737.34;;;2.17;71.35
67842;BME280;54642;59.126;37.876;2024-03-08T07:13:08;99749.28;;;2.18;71.29
67842;BME280;54642;59.126;37.876;2024-03-08T07:15:34;99727.56;;;2.00;71.43
67842;BME280;54642;59.126;37.876;2024-03-08T07:18:01;99711.94;;;1.86;71.52
67842;BME280;54642;59.126;37.876;2024-03-08T07:20:26;99746.31;;;1.99;71.59
67842;BME280;54642;59.126;37.876;2024-03-08T07:22:54;99727.13;;;1.82;71.65
67842;BME280;54642;59.126;37.876;2024-03-08T07:25:20;99733.88;;;1.80;72.03
67842;BME280;54642;59.126;37.876;2024-03-08T07:27:52;99739.03;;;1.81;72.23
67842;BME280;54642;59.126;37.876;2024-03-08T07:30:19;99738.09;;;1.78;72.31
67842;BME280;54642;59.126;37.876;2024-03-08T07:33:04;99695.16;;;1.63;72.31
67842;BME280;54642;59.126;37.876;2024-03-08T07:35:30;99731.47;;;1.86;72.44
67842;BME280;54642;59.126;37.876;2024-03-08T07:37:56;99686.75;;;1.67;72.42
67842;BME280;54642;59.126;37.876;2024-03-08T07:40:23;99717.81;;;1.84;72.34
67842;BME280;54642;59.126;37.876;2024-03-08T07:42:52;99738.78;;;2.05;72.42
67842;BME280;54642;59.126;37.876;2024-03-08T07:45:18;99726.63;;;1.97;72.07
67842;BME280;54642;59.126;37.876;2024-03-08T07:47:43;99743.84;;;2.02;72.12
67842;BME280;54642;59.126;37.876;2024-03-08T07:50:09;99729.19;;;1.95;72.12
67842;BME280;54642;59.126;37.876;2024-03-08T07:52:36;99719.72;;;1.93;72.17
67842;BME280;54642;59.126;37.876;2024-03-08T07:55:02;99751.50;;;2.04;72.44
67842;BME280;54642;59.126;37.876;2024-03-08T07:57:31;99745.50;;;2.02;72.20
67842;BME280;54642;59.126;37.876;2024-03-08T07:59:57;99731.69;;;1.94;72.48
67842;BME280;54642;59.126;37.876;2024-03-08T08:02:23;99734.28;;;1.95;72.29
67842;BME280;54642;59.126;37.876;2024-03-08T08:04:49;99714.25;;;1.79;72.46
67842;BME280;54642;59.126;37.876;2024-03-08T08:07:15;99733.31;;;1.90;72.01
67842;BME280;54642;59.126;37.876;2024-03-08T08:09:41;99742.59;;;1.86;72.18
67842;BME280;54642;59.126;37.876;2024-03-08T08:12:11;99717.41;;;1.67;72.38
67842;BME280;54642;59.126;37.876;2024-03-08T08:14:38;99729.41;;;1.71;72.89
67842;BME280;54642;59.126;37.876;2024-03-08T08:17:04;99732.81;;;1.70;72.53
67842;BME280;54642;59.126;37.876;2024-03-08T08:19:30;99744.16;;;1.81;72.58
67842;BME280;54642;59.126;37.876;2024-03-08T08:21:57;99741.56;;;1.80;72.43
67842;BME280;54642;59.126;37.876;2024-03-08T08:24:23;99739.00;;;1.80;72.49
67842;BME280;54642;59.126;37.876;2024-03-08T08:26:50;99733.75;;;1.75;72.38
67842;BME280;54642;59.126;37.876;2024-03-08T08:29:16;99742.59;;;1.86;72.25
67842;BME280;54642;59.126;37.876;2024-03-08T08:31:41;99755.94;;;2.09;71.97
67842;BME280;54642;59.126;37.876;2024-03-08T08:34:09;99761.22;;;2.17;71.81
67842;BME280;54642;59.126;37.876;2024-03-08T08:36:37;99714.91;;;2.05;71.56
67842;BME280;54642;59.126;37.876;2024-03-08T08:39:05;99758.03;;;2.26;71.16
67842;BME280;54642;59.126;37.876;2024-03-08T08:41:36;99750.34;;;2.26;70.72
67842;BME280;54642;59.126;37.876;2024-03-08T08:44:02;99747.00;;;2.28;70.83
67842;BME280;54642;59.126;37.876;2024-03-08T08:46:28;99739.97;;;2.20;70.71
67842;BME280;54642;59.126;37.876;2024-03-08T08:48:54;99753.97;;;2.36;70.42
67842;BME280;54642;59.126;37.876;2024-03-08T08:51:19;99752.34;;;2.39;69.23
67842;BME280;54642;59.126;37.876;2024-03-08T08:53:46;99731.59;;;2.25;68.69
67842;BME280;54642;59.126;37.876;2024-03-08T08:56:13;99725.03;;;2.37;68.52
67842;BME280;54642;59.126;37.876;2024-03-08T08:58:40;99762.09;;;2.54;68.21
67842;BME280;54642;59.126;37.876;2024-03-08T09:01:09;99754.38;;;2.53;67.86
67842;BME280;54642;59.126;37.876;2024-03-08T09:03:39;99726.81;;;2.41;67.58
67842;BME280;54642;59.126;37.876;2024-03-08T09:06:07;99755.06;;;2.45;66.95
67842;BME280;54642;59.126;37.876;2024-03-08T09:08:36;99755.91;;;2.46;66.46
67842;BME280;54642;59.126;37.876;2024-03-08T09:11:03;99733.47;;;2.33;66.79
67842;BME280;54642;59.126;37.876;2024-03-08T09:13:29;99763.78;;;2.55;66.86
67842;BME280;54642;59.126;37.876;2024-03-08T09:15:56;99754.34;;;2.51;66.93
67842;BME280;54642;59.126;37.876;2024-03-08T09:18:21;99764.78;;;2.60;66.45
67842;BME280;54642;59.126;37.876;2024-03-08T09:20:48;99746.81;;;2.59;65.83
67842;BME280;54642;59.126;37.876;2024-03-08T09:23:14;99768.41;;;2.70;64.34
67842;BME280;54642;59.126;37.876;2024-03-08T09:25:42;99768.09;;;2.56;63.61
67842;BME280;54642;59.126;37.876;2024-03-08T09:28:09;99751.63;;;2.43;62.99
67842;BME280;54642;59.126;37.876;2024-03-08T09:30:38;99764.66;;;2.56;62.59
67842;BME280;54642;59.126;37.876;2024-03-08T09:33:04;99776.00;;;2.67;62.58
67842;BME280;54642;59.126;37.876;2024-03-08T09:35:31;99781.28;;;2.75;62.95
67842;BME280;54642;59.126;37.876;2024-03-08T09:37:57;99779.28;;;2.99;63.42
67842;BME280;54642;59.126;37.876;2024-03-08T09:40:23;99766.19;;;3.28;63.09
67842;BME280;54642;59.126;37.876;2024-03-08T09:42:51;99768.13;;;3.38;62.52
67842;BME280;54642;59.126;37.876;2024-03-08T09:45:19;99765.81;;;3.54;62.90
67842;BME280;54642;59.126;37.876;2024-03-08T09:47:47;99740.25;;;3.57;62.60
67842;BME280;54642;59.126;37.876;2024-03-08T09:50:14;99753.19;;;3.61;62.01
67842;BME280;54642;59.126;37.876;2024-03-08T09:52:48;99772.03;;;3.65;61.98
67842;BME280;54642;59.126;37.876;2024-03-08T09:55:16;99773.59;;;3.58;62.05
67842;BME280;54642;59.126;37.876;2024-03-08T09:57:43;99753.66;;;3.42;61.43
67842;BME280;54642;59.126;37.876;2024-03-08T10:00:27;99777.69;;;3.49;62.04
67842;BME280;54642;59.126;37.876;2024-03-08T10:02:53;99769.81;;;3.39;62.33
67842;BME280;54642;59.126;37.876;2024-03-08T10:05:19;99755.19;;;3.34;62.44
67842;BME280;54642;59.126;37.876;2024-03-08T10:07:47;99763.03;;;3.41;62.24
67842;BME280;54642;59.126;37.876;2024-03-08T10:10:13;99765.00;;;3.55;61.69
67842;BME280;54642;59.126;37.876;2024-03-08T10:12:39;99756.44;;;3.53;61.11
67842;BME280;54642;59.126;37.876;2024-03-08T10:15:07;99753.16;;;3.60;61.11
67842;BME280;54642;59.126;37.876;2024-03-08T10:17:34;99756.75;;;3.71;61.38
67842;BME280;54642;59.126;37.876;2024-03-08T10:20:00;99761.16;;;3.78;60.64
67842;BME280;54642;59.126;37.876;2024-03-08T10:22:26;99768.38;;;3.54;60.64
67842;BME280;54642;59.126;37.876;2024-03-08T10:24:52;99763.81;;;3.37;60.89
67842;BME280;54642;59.126;37.876;2024-03-08T10:27:18;99780.81;;;3.34;60.65
67842;BME280;54642;59.126;37.876;2024-03-08T10:29:48;99789.88;;;3.18;60.67
67842;BME280;54642;59.126;37.876;2024-03-08T10:32:16;99812.28;;;2.87;61.46
67842;BME280;54642;59.126;37.876;2024-03-08T10:34:41;99822.91;;;2.67;61.99
67842;BME280;54642;59.126;37.876;2024-03-08T10:37:13;99796.25;;;2.21;63.14
67842;BME280;54642;59.126;37.876;2024-03-08T10:39:46;99829.34;;;2.15;64.64
67842;BME280;54642;59.126;37.876;2024-03-08T10:42:21;99801.44;;;1.91;65.22
67842;BME280;54642;59.126;37.876;2024-03-08T10:45:15;99796.53;;;1.97;65.45
67842;BME280;54642;59.126;37.876;2024-03-08T10:47:49;99815.16;;;1.95;65.79
67842;BME280;54642;59.126;37.876;2024-03-08T10:50:19;99801.84;;;2.06;65.85
67842;BME280;54642;59.126;37.876;2024-03-08T10:52:51;99793.91;;;2.31;65.61
67842;BME280;54642;59.126;37.876;2024-03-08T10:55:18;99779.66;;;2.40;65.39
67842;BME280;54642;59.126;37.876;2024-03-08T10:57:46;99796.66;;;2.75;65.01
67842;BME280;54642;59.126;37.876;2024-03-08T11:00:15;99811.78;;;3.03;64.14
67842;BME280;54642;59.126;37.876;2024-03-08T11:02:53;99796.63;;;3.14;63.95
67842;BME280;54642;59.126;37.876;2024-03-08T11:05:39;99805.66;;;3.38;63.51
67842;BME280;54642;59.126;37.876;2024-03-08T11:10:50;99808.78;;;3.67;62.38
67842;BME280;54642;59.126;37.876;2024-03-08T11:13:37;99796.81;;;3.66;61.58
67842;BME280;54642;59.126;37.876;2024-03-08T11:16:10;99780.31;;;3.52;61.16
67842;BME280;54642;59.126;37.876;2024-03-08T11:18:37;99803.91;;;3.79;61.26
67842;BME280;54642;59.126;37.876;2024-03-08T11:21:12;99806.88;;;4.03;60.92
67842;BME280;54642;59.126;37.876;2024-03-08T11:23:39;99780.19;;;3.93;59.32
67842;BME280;54642;59.126;37.876;2024-03-08T11:26:25;99796.09;;;4.22;59.34
67842;BME280;54642;59.126;37.876;2024-03-08T11:28:51;99785.06;;;4.28;58.94
67842;BME280;54642;59.126;37.876;2024-03-08T11:31:23;99807.34;;;4.32;58.99
67842;BME280;54642;59.126;37.876;2024-03-08T11:33:50;99792.66;;;4.22;59.17
67842;BME280;54642;59.126;37.876;2024-03-08T11:36:24;99798.84;;;4.36;58.16
67842;BME280;54642;59.126;37.876;2024-03-08T11:38:51;99802.66;;;4.08;57.50
67842;BME280;54642;59.126;37.876;2024-03-08T11:41:18;99816.03;;;3.88;56.81
67842;BME280;54642;59.126;37.876;2024-03-08T11:43:46;99808.81;;;3.69;56.26
67842;BME280;54642;59.126;37.876;2024-03-08T11:46:13;99804.13;;;3.46;56.20
67842;BME280;54642;59.126;37.876;2024-03-08T11:48:43;99833.16;;;3.47;55.75
67842;BME280;54642;59.126;37.876;2024-03-08T11:51:11;99820.88;;;3.30;55.57
67842;BME280;54642;59.126;37.876;2024-03-08T11:53:38;99838.00;;;3.34;55.63
67842;BME280;54642;59.126;37.876;2024-03-08T11:56:09;99841.53;;;3.39;56.49
67842;BME280;54642;59.126;37.876;2024-03-08T11:58:37;99827.66;;;3.28;57.29
67842;BME280;54642;59.126;37.876;2024-03-08T12:01:10;99823.09;;;3.15;57.18
67842;BME280;54642;59.126;37.876;2024-03-08T12:03:39;99851.31;;;3.16;57.73
67842;BME280;54642;59.126;37.876;2024-03-08T12:06:08;99844.34;;;3.11;57.74
67842;BME280;54642;59.126;37.876;2024-03-08T12:08:37;99838.22;;;3.04;57.71
67842;BME280;54642;59.126;37.876;2024-03-08T12:11:04;99844.22;;;3.04;57.86
67842;BME280;54642;59.126;37.876;2024-03-08T12:13:33;99858.75;;;3.05;58.17
67842;BME280;54642;59.126;37.876;2024-03-08T12:16:03;99841.63;;;3.03;58.47
67842;BME280;54642;59.126;37.876;2024-03-08T12:18:35;99858.94;;;3.13;58.61
67842;BME280;54642;59.126;37.876;2024-03-08T12:21:08;99847.28;;;3.28;58.83
67842;BME280;54642;59.126;37.876;2024-03-08T12:23:35;99854.78;;;3.20;58.72
67842;BME280;54642;59.126;37.876;2024-03-08T12:26:16;99855.13;;;2.96;58.79
67842;BME280;54642;59.126;37.876;2024-03-08T12:28:44;99840.31;;;2.82;59.25
67842;BME280;54642;59.126;37.876;2024-03-08T12:31:14;99863.66;;;2.96;59.43
67842;BME280;54642;59.126;37.876;2024-03-08T12:33:53;99818.16;;;2.83;59.08
67842;BME280;54642;59.126;37.876;2024-03-08T12:36:20;99851.94;;;3.06;59.44
67842;BME280;54642;59.126;37.876;2024-03-08T12:38:47;99862.59;;;3.24;59.17
67842;BME280;54642;59.126;37.876;2024-03-08T12:41:16;99849.00;;;3.29;58.89
67842;BME280;54642;59.126;37.876;2024-03-08T12:43:47;99856.38;;;3.54;58.65
67842;BME280;54642;59.126;37.876;2024-03-08T12:46:17;99868.16;;;3.89;58.12
67842;BME280;54642;59.126;37.876;2024-03-08T12:48:43;99857.72;;;3.37;57.79
67842;BME280;54642;59.126;37.876;2024-03-08T12:51:13;99873.38;;;3.11;58.62
67842;BME280;54642;59.126;37.876;2024-03-08T12:53:39;99891.78;;;2.95;59.15
67842;BME280;54642;59.126;37.876;2024-03-08T12:56:14;99880.22;;;2.74;59.41
67842;BME280;54642;59.126;37.876;2024-03-08T12:58:43;99890.09;;;2.59;59.60
67842;BME280;54642;59.126;37.876;2024-03-08T13:01:09;99880.25;;;2.41;59.38